Time;durP1;ratioP1;P1;durP2;ratioP2;P2;SDS_P1;SDS_P2;PMS_P1;PMS_P2;Temp;Humidity;BMP_temperature;BMP_pressure;BME280_temperature;BME280_humidity;BME280_pressure;Samples;Min_cycle;Max_cycle;Signal;HPM_P1;HPM_P2
2022/08/19 00:01:21;;;;;;;8.30;5.55;;;17.00;99.90;;;;;;5089118;28;20046;-73
2022/08/19 00:03:47;;;;;;;7.28;6.50;;;17.00;99.90;;;;;;5076505;28;20134;-72
2022/08/19 00:06:13;;;;;;;7.78;6.07;;;16.90;99.90;;;;;;5066682;28;20092;-72
2022/08/19 00:08:39;;;;;;;6.85;6.25;;;17.00;99.90;;;;;;5071368;28;20048;-72
2022/08/19 00:11:05;;;;;;;7.10;6.40;;;16.90;99.90;;;;;;5080867;28;20033;-73
2022/08/19 00:13:31;;;;;;;10.43;6.60;;;16.90;99.90;;;;;;5059289;28;20047;-72
2022/08/19 00:15:58;;;;;;;8.82;6.93;;;16.90;99.90;;;;;;5077792;28;20048;-73
2022/08/19 00:18:24;;;;;;;8.75;6.75;;;16.90;99.90;;;;;;5078319;28;20039;-72
2022/08/19 00:20:50;;;;;;;8.15;6.05;;;16.90;99.90;;;;;;5078062;28;20506;-73
2022/08/19 00:23:15;;;;;;;5.78;5.25;;;16.90;99.90;;;;;;5068750;28;20162;-72
2022/08/19 00:25:41;;;;;;;6.72;4.97;;;16.90;99.90;;;;;;5077911;28;20113;-73
2022/08/19 00:28:07;;;;;;;3.55;3.25;;;16.70;99.90;;;;;;5078895;28;20094;-73
2022/08/19 00:30:33;;;;;;;2.78;2.58;;;16.80;99.90;;;;;;5078270;28;20078;-72
2022/08/19 00:32:59;;;;;;;6.80;3.40;;;16.80;99.90;;;;;;5047743;28;20305;-72
2022/08/19 00:35:27;;;;;;;5.18;4.18;;;16.80;99.90;;;;;;5078021;28;20032;-72
2022/08/19 00:37:53;;;;;;;5.85;5.25;;;16.70;99.90;;;;;;5078389;28;20036;-72
2022/08/19 00:40:19;;;;;;;8.65;6.88;;;16.70;99.90;;;;;;5062982;28;20044;-73
2022/08/19 00:42:45;;;;;;;5.13;4.65;;;16.70;99.90;;;;;;5084522;28;20040;-73
2022/08/19 00:45:18;;;;;;;4.78;4.35;;;16.70;99.90;;;;;;5095965;28;20043;-73
2022/08/19 00:47:44;;;;;;;6.15;5.55;;;16.60;99.90;;;;;;5078036;28;20185;-72
2022/08/19 00:50:14;;;;;;;5.78;5.28;;;16.60;99.90;;;;;;5061144;28;20052;-72
2022/08/19 00:52:45;;;;;;;6.95;6.32;;;16.60;99.90;;;;;;5078127;28;20047;-72
2022/08/19 00:55:20;;;;;;;8.65;6.35;;;16.50;99.90;;;;;;5077807;28;20071;-72
2022/08/19 00:57:57;;;;;;;7.43;6.72;;;16.50;99.90;;;;;;5067060;28;20044;-72
2022/08/19 01:00:25;;;;;;;8.77;7.97;;;16.50;99.90;;;;;;5067751;28;20032;-72
2022/08/19 01:02:52;;;;;;;9.48;7.68;;;16.50;99.90;;;;;;5059135;28;20032;-72
2022/08/19 01:05:22;;;;;;;8.43;6.30;;;16.50;99.90;;;;;;5059914;28;20047;-72
2022/08/19 01:07:50;;;;;;;6.95;6.35;;;16.50;99.90;;;;;;5063275;28;20123;-72
2022/08/19 01:10:19;;;;;;;9.38;7.88;;;16.40;99.90;;;;;;5077130;28;20051;-72
2022/08/19 01:12:46;;;;;;;8.57;7.82;;;16.50;99.90;;;;;;5087620;28;20036;-73
2022/08/19 01:15:15;;;;;;;7.07;5.85;;;16.50;99.90;;;;;;5081118;28;20040;-72
2022/08/19 01:17:42;;;;;;;7.20;6.53;;;16.50;99.90;;;;;;5081970;28;20048;-73
2022/08/19 01:20:17;;;;;;;7.95;5.40;;;16.50;99.90;;;;;;5080195;28;20046;-73
2022/08/19 01:22:52;;;;;;;5.53;5.10;;;16.40;99.90;;;;;;5077261;28;20501;-72
2022/08/19 01:25:22;;;;;;;5.20;4.70;;;16.40;99.90;;;;;;5092943;28;20039;-72
2022/08/19 01:27:50;;;;;;;6.07;5.15;;;16.40;99.90;;;;;;5077098;28;20082;-72
2022/08/19 01:30:22;;;;;;;5.68;4.90;;;16.30;99.90;;;;;;5069953;28;20050;-73
2022/08/19 01:32:48;;;;;;;9.48;7.00;;;16.30;99.90;;;;;;5070355;28;20044;-72
2022/08/19 01:35:17;;;;;;;7.47;5.65;;;16.30;99.90;;;;;;5094580;28;20119;-72
2022/08/19 01:37:51;;;;;;;3.95;3.65;;;16.20;99.90;;;;;;5114881;28;20035;-72
2022/08/19 01:40:19;;;;;;;6.32;5.47;;;16.30;99.90;;;;;;5052322;28;20036;-72
2022/08/19 01:42:49;;;;;;;9.23;5.68;;;16.20;99.90;;;;;;5083253;28;20415;-72
2022/08/19 01:45:16;;;;;;;8.40;6.40;;;16.30;99.90;;;;;;5076419;28;20044;-72
2022/08/19 01:47:42;;;;;;;9.48;6.88;;;16.20;99.90;;;;;;5075652;28;20039;-72
2022/08/19 01:50:10;;;;;;;7.57;6.85;;;16.20;99.90;;;;;;5094300;28;20036;-72
2022/08/19 01:52:37;;;;;;;14.30;7.28;;;16.20;99.90;;;;;;5076344;28;20078;-72
2022/08/19 01:55:05;;;;;;;8.27;6.93;;;16.10;99.90;;;;;;5076428;28;20067;-72
2022/08/19 01:57:31;;;;;;;7.63;6.93;;;16.20;99.90;;;;;;5050667;28;20072;-72
2022/08/19 01:59:56;;;;;;;11.80;7.72;;;16.20;99.90;;;;;;5084063;28;20423;-72
2022/08/19 02:02:22;;;;;;;8.50;7.70;;;16.20;99.90;;;;;;5088968;28;20032;-72
2022/08/19 02:04:48;;;;;;;8.18;7.38;;;16.20;99.90;;;;;;5076321;28;20509;-72
2022/08/19 02:07:14;;;;;;;8.85;7.93;;;16.20;99.90;;;;;;5093853;28;20043;-73
2022/08/19 02:09:40;;;;;;;9.65;7.07;;;16.20;99.90;;;;;;5091460;28;20127;-73
2022/08/19 02:12:08;;;;;;;7.65;6.72;;;16.20;99.90;;;;;;5073963;28;20515;-73
2022/08/19 02:14:34;;;;;;;9.45;6.88;;;16.20;99.90;;;;;;5075752;28;20459;-73
2022/08/19 02:17:00;;;;;;;8.90;8.00;;;16.10;99.90;;;;;;5092878;28;20505;-73
2022/08/19 02:19:27;;;;;;;8.40;7.72;;;16.10;99.90;;;;;;5105449;28;20120;-73
2022/08/19 02:21:53;;;;;;;8.65;7.85;;;16.10;99.90;;;;;;5073461;28;20051;-73
2022/08/19 02:24:18;;;;;;;9.02;8.00;;;16.10;99.90;;;;;;5070657;28;20040;-73
2022/08/19 02:26:44;;;;;;;9.27;8.20;;;16.10;99.90;;;;;;5057030;28;20040;-73
2022/08/19 02:29:10;;;;;;;7.82;7.00;;;16.10;99.90;;;;;;5073322;28;20055;-73
2022/08/19 02:31:35;;;;;;;7.63;6.93;;;16.00;99.90;;;;;;5070559;28;20040;-72
2022/08/19 02:34:01;;;;;;;4.32;2.88;;;16.00;99.90;;;;;;5091549;28;20165;-73
2022/08/19 02:36:27;;;;;;;6.15;2.47;;;16.00;99.90;;;;;;5090589;28;20105;-73
2022/08/19 02:38:54;;;;;;;3.53;3.20;;;15.90;99.90;;;;;;5090996;28;20047;-73
2022/08/19 02:41:23;;;;;;;4.63;4.20;;;15.80;99.90;;;;;;5058622;28;20498;-73
2022/08/19 02:43:49;;;;;;;4.03;1.90;;;15.80;99.90;;;;;;5077513;28;20527;-73
2022/08/19 02:46:24;;;;;;;1.88;1.48;;;15.70;99.90;;;;;;5074076;28;20097;-73
2022/08/19 02:48:52;;;;;;;1.98;1.02;;;15.70;99.90;;;;;;5073403;28;20044;-73
2022/08/19 02:51:26;;;;;;;1.52;1.40;;;15.60;99.90;;;;;;5078630;28;20513;-73
2022/08/19 02:53:54;;;;;;;1.15;1.15;;;15.60;99.90;;;;;;5094179;28;20675;-73
2022/08/19 02:56:20;;;;;;;2.45;1.50;;;15.50;99.90;;;;;;5095155;28;20498;-73
2022/08/19 02:58:48;;;;;;;1.55;1.45;;;15.50;99.90;;;;;;5094854;28;20562;-72
2022/08/19 03:01:21;;;;;;;5.70;5.20;;;15.40;99.90;;;;;;5095227;28;20032;-72
2022/08/19 03:03:47;;;;;;;5.32;4.35;;;15.40;99.90;;;;;;5093111;28;20028;-72
2022/08/19 03:06:15;;;;;;;5.10;4.47;;;15.40;99.90;;;;;;5068543;28;20048;-73
2022/08/19 03:08:43;;;;;;;6.47;5.80;;;15.30;99.90;;;;;;5078374;28;20460;-72
2022/08/19 03:11:18;;;;;;;5.88;5.38;;;15.40;99.90;;;;;;5094097;28;20646;-73
2022/08/19 03:13:44;;;;;;;6.03;5.45;;;15.40;99.90;;;;;;5092419;28;20417;-73
2022/08/19 03:16:12;;;;;;;5.68;4.78;;;15.40;99.90;;;;;;5076834;28;20422;-72
2022/08/19 03:18:38;;;;;;;6.38;4.78;;;15.40;99.90;;;;;;5075376;28;20402;-72
2022/08/19 03:21:05;;;;;;;5.43;4.93;;;15.40;99.90;;;;;;5073526;28;20431;-72
2022/08/19 03:23:31;;;;;;;5.60;4.65;;;15.40;99.90;;;;;;5069353;28;20036;-73
2022/08/19 03:25:57;;;;;;;4.78;4.38;;;15.40;99.90;;;;;;5071423;28;20063;-73
2022/08/19 03:28:23;;;;;;;3.80;3.50;;;15.40;99.90;;;;;;5068264;28;20044;-72
2022/08/19 03:31:19;;;;;;;5.72;4.05;;;15.40;99.90;;;;;;5069059;28;20040;-72
2022/08/19 03:33:45;;;;;;;5.13;4.63;;;15.40;99.90;;;;;;5061248;28;20087;-73
2022/08/19 03:36:12;;;;;;;4.97;3.83;;;15.40;99.90;;;;;;5072913;28;20051;-72
2022/08/19 03:38:42;;;;;;;5.40;3.88;;;15.40;99.90;;;;;;5067191;28;20047;-72
2022/08/19 03:41:15;;;;;;;8.10;5.00;;;15.40;99.90;;;;;;5073263;28;20028;-72
2022/08/19 03:43:41;;;;;;;6.53;5.93;;;15.40;99.90;;;;;;5069246;28;20036;-73
2022/08/19 03:46:10;;;;;;;7.82;6.45;;;15.40;99.90;;;;;;5057470;28;20267;-72
2022/08/19 03:48:38;;;;;;;8.02;7.22;;;15.40;99.90;;;;;;5069031;28;20044;-72
2022/08/19 03:51:05;;;;;;;9.10;6.43;;;15.40;99.90;;;;;;5073930;28;20175;-72
2022/08/19 03:53:32;;;;;;;6.65;6.05;;;15.40;99.90;;;;;;5073569;28;20079;-71
2022/08/19 03:56:01;;;;;;;7.30;6.60;;;15.40;99.90;;;;;;5088105;28;20048;-72
2022/08/19 03:58:29;;;;;;;7.53;6.82;;;15.40;99.90;;;;;;5073006;28;20039;-72
2022/08/19 04:00:58;;;;;;;11.27;8.55;;;15.40;99.90;;;;;;5059997;28;20127;-72
2022/08/19 04:03:26;;;;;;;7.38;6.65;;;15.40;99.90;;;;;;5075065;28;20072;-72
2022/08/19 04:05:53;;;;;;;4.82;4.32;;;15.40;99.90;;;;;;5076178;28;20494;-72
2022/08/19 04:08:22;;;;;;;8.95;5.60;;;15.40;99.90;;;;;;5075621;28;20040;-72
2022/08/19 04:10:48;;;;;;;10.55;7.50;;;15.40;99.90;;;;;;5074630;28;20123;-71
2022/08/19 04:13:16;;;;;;;8.07;6.75;;;15.40;99.90;;;;;;5053049;28;20043;-72
2022/08/19 04:15:44;;;;;;;8.32;7.50;;;15.40;99.90;;;;;;5069253;28;20101;-72
2022/08/19 04:18:10;;;;;;;7.32;3.67;;;15.40;99.90;;;;;;5071914;28;20036;-72
2022/08/19 04:20:44;;;;;;;4.38;3.00;;;15.40;99.90;;;;;;5074991;28;20497;-72
2022/08/19 04:23:12;;;;;;;4.70;2.13;;;15.30;99.90;;;;;;5064918;28;20067;-72
2022/08/19 04:25:43;;;;;;;1.80;1.70;;;15.30;99.90;;;;;;5089317;28;20105;-72
2022/08/19 04:28:11;;;;;;;1.55;1.45;;;15.20;99.90;;;;;;5068461;28;20036;-72
2022/08/19 04:30:48;;;;;;;3.85;2.28;;;15.10;99.90;;;;;;5067862;28;20506;-72
2022/08/19 04:33:15;;;;;;;2.03;1.63;;;15.10;99.90;;;;;;5058144;28;20652;-72
2022/08/19 04:35:45;;;;;;;3.00;2.70;;;15.00;99.90;;;;;;5055172;28;20056;-72
2022/08/19 04:38:11;;;;;;;2.58;1.85;;;15.00;99.90;;;;;;5073116;28;20044;-72
2022/08/19 04:43:35;;;;;;;1.10;1.10;;;14.90;99.90;;;;;;5067006;28;20071;-72
2022/08/19 04:46:11;;;;;;;1.38;1.27;;;14.90;99.90;;;;;;5057588;28;20074;-72
2022/08/19 04:48:38;;;;;;;1.23;1.10;;;14.90;99.90;;;;;;5082865;28;20047;-72
2022/08/19 04:51:12;;;;;;;3.58;2.03;;;14.80;99.90;;;;;;5055043;28;20040;-72
2022/08/19 04:53:39;;;;;;;1.40;1.30;;;14.80;99.90;;;;;;5054748;28;20040;-72
2022/08/19 04:56:11;;;;;;;1.38;1.27;;;14.80;99.90;;;;;;5089541;28;20054;-71
2022/08/19 04:58:39;;;;;;;1.58;1.48;;;14.70;99.90;;;;;;5063652;28;20047;-72
2022/08/19 05:01:05;;;;;;;3.90;3.50;;;14.70;99.90;;;;;;5054980;28;20040;-72
2022/08/19 05:03:33;;;;;;;4.18;3.78;;;14.70;99.90;;;;;;5058049;28;20044;-72
2022/08/19 05:06:07;;;;;;;7.60;5.30;;;14.80;99.90;;;;;;5086318;28;20048;-71
2022/08/19 05:08:34;;;;;;;5.60;5.10;;;14.80;99.90;;;;;;5068245;28;20135;-72
2022/08/19 05:11:00;;;;;;;6.75;5.18;;;14.80;99.90;;;;;;5088167;28;20059;-72
2022/08/19 05:13:26;;;;;;;6.47;5.70;;;14.80;99.90;;;;;;5092646;28;20036;-72
2022/08/19 05:15:58;;;;;;;6.00;5.40;;;14.80;99.90;;;;;;5074353;28;20079;-72
2022/08/19 05:23:58;;;;;;;7.85;6.47;;;14.90;99.90;;;;;;5074172;28;20497;-72
2022/08/19 05:26:25;;;;;;;8.00;5.18;;;14.90;99.90;;;;;;5057695;28;20169;-72
2022/08/19 05:28:52;;;;;;;4.70;4.30;;;15.00;99.90;;;;;;5074142;28;20039;-72
2022/08/19 05:31:18;;;;;;;4.47;3.30;;;15.00;99.90;;;;;;5074460;28;20036;-72
2022/08/19 05:33:44;;;;;;;7.18;4.82;;;15.00;99.90;;;;;;5074386;28;20055;-72
2022/08/19 05:36:10;;;;;;;5.13;4.00;;;15.00;99.90;;;;;;5080460;28;20101;-72
2022/08/19 05:38:35;;;;;;;4.50;4.10;;;15.10;99.90;;;;;;5064446;28;20073;-72
2022/08/19 05:41:10;;;;;;;4.72;3.75;;;15.10;99.90;;;;;;5092501;28;20036;-72
2022/08/19 05:43:36;;;;;;;6.75;3.97;;;15.10;99.90;;;;;;5092208;28;20035;-72
2022/08/19 05:46:04;;;;;;;3.72;2.97;;;15.10;99.90;;;;;;5074167;28;20126;-72
2022/08/19 05:48:31;;;;;;;5.80;5.20;;;15.10;99.90;;;;;;5086370;28;20104;-72
2022/08/19 05:50:58;;;;;;;5.78;4.85;;;15.10;99.90;;;;;;5058130;28;20040;-72
2022/08/19 05:53:24;;;;;;;10.98;6.60;;;15.10;99.90;;;;;;5092163;28;20039;-72
2022/08/19 05:55:49;;;;;;;11.38;8.75;;;15.20;99.90;;;;;;5076126;28;20075;-72
2022/08/19 05:58:15;;;;;;;11.20;9.23;;;15.20;99.90;;;;;;5094142;28;20040;-72
2022/08/19 06:00:43;;;;;;;8.55;7.63;;;15.30;99.90;;;;;;5093641;28;20044;-72
2022/08/19 06:03:08;;;;;;;9.18;6.90;;;15.40;99.90;;;;;;5094001;28;20122;-72
2022/08/19 06:05:34;;;;;;;11.63;9.05;;;15.40;99.90;;;;;;5080583;28;20070;-72
2022/08/19 06:08:00;;;;;;;14.88;9.93;;;15.50;99.90;;;;;;5053780;28;20036;-72
2022/08/19 06:10:26;;;;;;;12.05;10.85;;;15.60;99.90;;;;;;5073435;28;20456;-72
2022/08/19 06:12:52;;;;;;;13.60;11.93;;;15.70;99.90;;;;;;5075448;28;20078;-72
2022/08/19 06:15:18;;;;;;;19.42;14.75;;;15.80;99.90;;;;;;5073300;28;20122;-72
2022/08/19 06:17:44;;;;;;;22.50;16.00;;;15.80;99.90;;;;;;5073788;28;20554;-72
2022/08/19 06:20:13;;;;;;;27.48;21.52;;;15.90;99.90;;;;;;5078720;28;20072;-72
2022/08/19 06:22:45;;;;;;;32.20;23.85;;;16.10;99.90;;;;;;5070064;28;20047;-72
2022/08/19 06:25:12;;;;;;;34.33;22.88;;;16.30;99.90;;;;;;5071749;28;20038;-72
2022/08/19 06:27:38;;;;;;;32.10;24.48;;;16.30;99.90;;;;;;5070981;28;20036;-72
2022/08/19 06:30:05;;;;;;;35.58;25.90;;;16.50;99.90;;;;;;5072812;28;20110;-72
2022/08/19 06:32:31;;;;;;;38.22;26.15;;;16.60;99.90;;;;;;5084942;28;20079;-72
2022/08/19 06:34:58;;;;;;;37.25;25.88;;;16.70;99.90;;;;;;5070263;28;20040;-72
2022/08/19 06:37:24;;;;;;;33.88;25.13;;;16.70;99.90;;;;;;5073326;28;20036;-72
2022/08/19 06:39:50;;;;;;;37.42;26.83;;;16.90;99.90;;;;;;5073238;28;20489;-72
2022/08/19 06:42:18;;;;;;;35.33;25.15;;;17.00;99.90;;;;;;5072770;28;20048;-72
2022/08/19 06:44:47;;;;;;;25.02;20.80;;;17.10;99.90;;;;;;5070470;28;20047;-73
2022/08/19 06:47:18;;;;;;;24.98;19.60;;;17.10;99.90;;;;;;5072015;28;20149;-73
2022/08/19 06:49:44;;;;;;;29.30;22.17;;;17.20;99.90;;;;;;5072778;28;20513;-73
2022/08/19 06:52:12;;;;;;;34.40;24.83;;;17.30;99.90;;;;;;5038902;28;20047;-72
2022/08/19 06:54:39;;;;;;;32.95;24.73;;;17.50;99.90;;;;;;5073600;28;20508;-72
2022/08/19 06:57:06;;;;;;;32.30;23.95;;;17.60;99.90;;;;;;5073436;28;20486;-72
2022/08/19 06:59:32;;;;;;;29.30;22.50;;;17.90;99.90;;;;;;5073014;28;20040;-72
2022/08/19 07:02:01;;;;;;;26.70;21.23;;;18.10;99.90;;;;;;5070277;28;20484;-72
2022/08/19 07:04:33;;;;;;;28.40;21.45;;;18.20;99.90;;;;;;5085142;28;20522;-72
2022/08/19 07:07:03;;;;;;;25.23;19.35;;;18.30;99.90;;;;;;5072960;28;20453;-72
2022/08/19 07:09:28;;;;;;;23.95;18.98;;;18.50;99.90;;;;;;5073130;28;20533;-72
2022/08/19 07:11:55;;;;;;;19.98;17.35;;;18.70;99.90;;;;;;5072751;28;20072;-72
2022/08/19 07:14:26;;;;;;;23.88;16.40;;;18.90;99.90;;;;;;5073042;28;20383;-72
2022/08/19 07:16:54;;;;;;;19.10;16.83;;;19.10;99.90;;;;;;5043249;28;20528;-72
2022/08/19 07:19:21;;;;;;;19.63;16.70;;;19.30;99.90;;;;;;5081745;28;20032;-72
2022/08/19 07:21:52;;;;;;;20.70;16.45;;;19.40;99.90;;;;;;5073378;28;20398;-72
2022/08/19 07:24:20;;;;;;;18.98;16.35;;;19.60;99.90;;;;;;5061087;28;20428;-72
2022/08/19 07:26:46;;;;;;;22.92;16.52;;;19.70;99.90;;;;;;5074207;28;20372;-73
2022/08/19 07:29:12;;;;;;;18.83;16.70;;;19.80;99.90;;;;;;5067376;28;20054;-73
2022/08/19 07:31:38;;;;;;;17.90;15.55;;;19.90;99.90;;;;;;5081625;28;20040;-73
2022/08/19 07:34:06;;;;;;;16.98;15.10;;;20.00;99.90;;;;;;5075004;28;20501;-72
2022/08/19 07:36:34;;;;;;;17.45;15.50;;;20.10;99.90;;;;;;5076400;28;20067;-72
2022/08/19 07:39:04;;;;;;;17.58;15.77;;;20.20;99.90;;;;;;5076165;28;20048;-72
2022/08/19 07:41:31;;;;;;;19.33;15.00;;;20.30;99.90;;;;;;5076587;28;20449;-72
2022/08/19 07:43:58;;;;;;;17.23;15.43;;;20.40;99.90;;;;;;5063643;28;20501;-72
2022/08/19 07:46:23;;;;;;;15.82;14.23;;;20.50;99.90;;;;;;5092919;28;20044;-72
2022/08/19 07:48:51;;;;;;;16.83;12.57;;;20.70;99.90;;;;;;5078034;28;20062;-73
2022/08/19 07:51:20;;;;;;;15.13;12.75;;;20.80;99.90;;;;;;5077197;28;20043;-73
2022/08/19 07:53:47;;;;;;;16.30;12.90;;;20.90;99.90;;;;;;5081509;28;20038;-73
2022/08/19 07:56:14;;;;;;;14.65;13.13;;;21.00;99.90;;;;;;5076222;28;20094;-73
2022/08/19 07:58:43;;;;;;;15.10;12.63;;;21.10;99.90;;;;;;5059504;28;20050;-73
2022/08/19 08:01:12;;;;;;;13.63;11.65;;;21.20;99.90;;;;;;5080279;28;20031;-73
2022/08/19 08:09:11;;;;;;;13.27;10.23;;;21.50;99.90;;;;;;5084801;28;20036;-73
2022/08/19 08:11:41;;;;;;;11.73;10.55;;;21.60;99.90;;;;;;5069952;28;20050;-73
2022/08/19 08:14:08;;;;;;;12.55;10.55;;;21.70;99.90;;;;;;5075829;28;20126;-73
2022/08/19 08:16:36;;;;;;;13.40;10.25;;;21.80;99.90;;;;;;5069134;28;20636;-73
2022/08/19 08:19:08;;;;;;;11.77;10.57;;;21.90;99.90;;;;;;5081988;28;20398;-73
2022/08/19 08:21:34;;;;;;;12.47;10.43;;;22.00;99.90;;;;;;5076900;28;20070;-73
2022/08/19 08:23:59;;;;;;;13.63;10.98;;;22.00;99.90;;;;;;5062421;28;20462;-73
2022/08/19 08:26:25;;;;;;;13.82;10.57;;;22.10;99.90;;;;;;5083728;28;20075;-73
2022/08/19 08:28:52;;;;;;;19.85;11.52;;;22.20;99.90;;;;;;5077506;28;20050;-73
2022/08/19 08:31:18;;;;;;;12.88;11.05;;;22.30;99.90;;;;;;5066521;28;20039;-73
2022/08/19 08:33:45;;;;;;;12.18;10.85;;;22.40;99.90;;;;;;5084750;28;20115;-73
2022/08/19 08:36:15;;;;;;;15.57;12.48;;;22.50;99.90;;;;;;5049988;28;20068;-73
2022/08/19 08:38:45;;;;;;;14.10;11.60;;;22.70;99.90;;;;;;5071027;28;20032;-73
2022/08/19 08:41:33;;;;;;;17.58;14.25;;;22.80;99.90;;;;;;5067768;28;20043;-73
2022/08/19 08:43:59;;;;;;;16.75;14.68;;;22.90;99.90;;;;;;5073930;28;20433;-73
2022/08/19 08:46:39;;;;;;;18.40;14.63;;;22.90;99.90;;;;;;5063331;28;20544;-74
2022/08/19 08:49:28;;;;;;;17.00;14.13;;;23.00;99.90;;;;;;5080988;28;20402;-73
2022/08/19 08:52:04;;;;;;;15.57;14.00;;;23.20;99.90;;;;;;5084516;28;20486;-74
2022/08/19 08:54:39;;;;;;;15.68;13.75;;;23.20;99.90;;;;;;5074779;28;20506;-73
2022/08/19 08:57:12;;;;;;;21.23;14.52;;;23.30;99.90;;;;;;5061045;28;20041;-73
2022/08/19 08:59:40;;;;;;;18.13;13.32;;;23.50;99.90;;;;;;5074899;28;20557;-73
2022/08/19 09:02:07;;;;;;;16.25;14.52;;;23.70;99.90;;;;;;5066484;28;20621;-73
2022/08/19 09:04:35;;;;;;;15.43;13.82;;;23.80;99.90;;;;;;5091569;28;20085;-73
2022/08/19 09:07:07;;;;;;;15.48;13.93;;;23.90;99.90;;;;;;5062124;28;20492;-73
2022/08/19 09:09:42;;;;;;;14.80;12.85;;;24.00;99.90;;;;;;5048334;28;20063;-73
2022/08/19 09:12:38;;;;;;;13.60;12.25;;;24.10;99.90;;;;;;5074077;28;20043;-73
2022/08/19 09:15:11;;;;;;;12.27;11.07;;;24.20;99.90;;;;;;5071798;28;20570;-73
2022/08/19 09:17:38;;;;;;;12.57;10.73;;;24.30;99.90;;;;;;5075482;28;20459;-73
2022/08/19 09:20:10;;;;;;;14.50;10.45;;;24.40;99.90;;;;;;5084118;28;20384;-73
2022/08/19 09:22:43;;;;;;;13.05;8.88;;;24.60;99.90;;;;;;5072132;28;20089;-73
2022/08/19 09:25:12;;;;;;;11.40;9.98;;;24.80;99.90;;;;;;5071399;28;20384;-73
2022/08/19 09:27:39;;;;;;;15.02;10.63;;;25.00;99.90;;;;;;5069798;28;20056;-73
2022/08/19 09:30:07;;;;;;;12.43;11.23;;;25.10;99.90;;;;;;5079411;28;20078;-73
2022/08/19 09:32:33;;;;;;;13.00;10.95;;;25.30;99.90;;;;;;5081192;28;20410;-73
2022/08/19 09:35:00;;;;;;;16.30;13.15;;;25.50;99.90;;;;;;5076950;28;20047;-73
2022/08/19 09:37:26;;;;;;;13.00;10.85;;;25.50;99.90;;;;;;5092320;28;20431;-73
2022/08/19 09:39:52;;;;;;;11.07;9.98;;;25.40;99.90;;;;;;5081954;28;20391;-73
2022/08/19 09:42:18;;;;;;;10.98;9.32;;;25.50;99.90;;;;;;5074079;28;20467;-73
2022/08/19 09:44:44;;;;;;;11.40;10.02;;;25.60;99.90;;;;;;5092245;28;20043;-73
2022/08/19 09:47:12;;;;;;;13.40;11.32;;;25.70;99.90;;;;;;5091642;28;20406;-72
2022/08/19 09:49:39;;;;;;;11.38;10.20;;;25.80;99.90;;;;;;5097812;28;20040;-72
2022/08/19 09:52:09;;;;;;;19.45;8.98;;;25.80;99.90;;;;;;5072403;28;20040;-72
2022/08/19 09:54:34;;;;;;;16.00;9.20;;;25.90;99.90;;;;;;5074539;28;20410;-72
2022/08/19 09:57:00;;;;;;;10.98;8.55;;;25.90;99.90;;;;;;5097911;28;20032;-73
2022/08/19 09:59:27;;;;;;;11.25;8.70;;;26.10;99.90;;;;;;5080963;28;20508;-72
2022/08/19 10:01:53;;;;;;;9.50;8.60;;;26.20;99.90;;;;;;5093691;28;20036;-72
2022/08/19 10:04:20;;;;;;;12.05;10.88;;;26.30;99.90;;;;;;5079928;28;20656;-72
2022/08/19 10:06:47;;;;;;;12.65;10.23;;;26.20;99.90;;;;;;5095035;28;20055;-72
2022/08/19 10:09:14;;;;;;;9.48;8.55;;;26.10;99.90;;;;;;5089295;28;20032;-73
2022/08/19 10:11:41;;;;;;;8.30;7.50;;;26.30;99.90;;;;;;5090917;28;20040;-72
2022/08/19 10:14:07;;;;;;;8.13;7.30;;;26.60;99.90;;;;;;5075661;28;20117;-72
2022/08/19 10:16:35;;;;;;;8.82;7.25;;;26.80;99.90;;;;;;5073191;28;20479;-72
2022/08/19 10:19:01;;;;;;;8.77;6.65;;;27.00;99.90;;;;;;5110902;28;20172;-72
2022/08/19 10:21:30;;;;;;;7.10;6.40;;;27.20;99.90;;;;;;5097499;28;20036;-72
2022/08/19 10:23:59;;;;;;;11.70;8.85;;;27.50;99.90;;;;;;5086574;28;20039;-72
2022/08/19 10:26:28;;;;;;;9.23;8.32;;;27.20;96.60;;;;;;5071249;28;20048;-72
2022/08/19 10:28:54;;;;;;;9.38;8.38;;;27.10;97.10;;;;;;5089754;28;20495;-72
2022/08/19 10:31:23;;;;;;;10.48;9.18;;;27.00;98.50;;;;;;5073301;28;20131;-72
2022/08/19 10:33:50;;;;;;;8.80;6.65;;;27.10;98.50;;;;;;5073498;28;20040;-72
2022/08/19 10:36:22;;;;;;;8.75;7.88;;;27.30;98.10;;;;;;5073165;28;20044;-72
2022/08/19 10:38:52;;;;;;;9.13;8.23;;;27.40;97.60;;;;;;5090346;28;20063;-72
2022/08/19 10:41:22;;;;;;;10.82;9.65;;;27.70;97.10;;;;;;5055429;28;20044;-72
2022/08/19 10:43:54;;;;;;;11.75;10.02;;;27.80;97.90;;;;;;5039666;28;20044;-73
2022/08/19 10:46:21;;;;;;;10.73;9.35;;;27.90;99.00;;;;;;5072404;28;20051;-73
2022/08/19 10:48:48;;;;;;;10.07;8.63;;;28.10;99.30;;;;;;5073035;28;20050;-73
2022/08/19 10:53:59;;;;;;;8.63;7.50;;;28.50;97.90;;;;;;5073605;28;20487;-73
2022/08/19 10:59:11;;;;;;;10.55;8.13;;;28.90;97.90;;;;;;5073050;28;20456;-73
2022/08/19 11:01:37;;;;;;;9.40;8.40;;;28.60;96.30;;;;;;5068673;28;20036;-73
2022/08/19 11:04:04;;;;;;;13.57;7.25;;;28.20;95.80;;;;;;5077304;28;20505;-73
2022/08/19 11:06:33;;;;;;;6.55;5.95;;;28.50;96.80;;;;;;5077003;28;20052;-73
2022/08/19 11:08:59;;;;;;;6.43;5.40;;;28.60;94.30;;;;;;5060239;28;20052;-73
2022/08/19 11:11:26;;;;;;;8.68;6.55;;;28.80;94.90;;;;;;5095040;28;20545;-73
2022/08/19 11:13:52;;;;;;;10.80;6.20;;;28.80;93.90;;;;;;5076763;28;20072;-72
2022/08/19 11:16:25;;;;;;;8.45;7.50;;;28.80;94.90;;;;;;5076778;28;20596;-72
2022/08/19 11:18:54;;;;;;;9.05;7.43;;;28.40;93.70;;;;;;5075777;28;20051;-72
2022/08/19 11:21:31;;;;;;;7.03;6.13;;;28.20;94.00;;;;;;5076642;28;20498;-72
2022/08/19 11:24:00;;;;;;;6.72;5.97;;;28.10;95.30;;;;;;5091013;28;20040;-72
2022/08/19 11:26:28;;;;;;;7.57;5.22;;;28.10;93.80;;;;;;5089898;28;20040;-72
2022/08/19 11:28:54;;;;;;;8.27;5.63;;;28.10;93.60;;;;;;5056406;28;20040;-73
2022/08/19 11:31:23;;;;;;;8.98;5.40;;;28.10;94.20;;;;;;5074551;28;20041;-72
2022/08/19 11:33:53;;;;;;;6.80;5.30;;;28.20;94.20;;;;;;5075085;28;20044;-72
2022/08/19 11:36:21;;;;;;;8.90;6.68;;;28.40;94.50;;;;;;5078747;28;20068;-72
2022/08/19 11:38:48;;;;;;;10.52;7.50;;;28.70;93.40;;;;;;5071431;28;20073;-72
2022/08/19 11:41:16;;;;;;;7.85;7.10;;;28.60;91.00;;;;;;5063150;28;20036;-72
2022/08/19 11:43:42;;;;;;;7.18;6.40;;;28.30;93.10;;;;;;5074211;28;20047;-72
2022/08/19 11:46:11;;;;;;;8.30;7.45;;;27.90;91.60;;;;;;5069780;28;20422;-72
2022/08/19 11:48:38;;;;;;;9.00;6.40;;;28.30;93.50;;;;;;5068309;28;20045;-73
2022/08/19 11:51:06;;;;;;;6.00;5.50;;;28.40;93.10;;;;;;5066066;28;20037;-72
2022/08/19 11:53:32;;;;;;;6.45;5.65;;;28.60;91.60;;;;;;5085958;28;20028;-73
2022/08/19 11:55:58;;;;;;;7.70;5.18;;;28.70;90.40;;;;;;5086897;28;20113;-71
2022/08/19 11:58:24;;;;;;;5.38;4.85;;;28.50;90.80;;;;;;5064146;28;20041;-73
2022/08/19 12:00:51;;;;;;;7.68;4.45;;;28.60;91.20;;;;;;5064003;28;20074;-72
2022/08/19 12:03:19;;;;;;;6.20;5.40;;;28.70;90.10;;;;;;5058701;28;20048;-73
2022/08/19 12:05:45;;;;;;;5.93;5.28;;;28.90;89.90;;;;;;5056210;28;20040;-72
2022/08/19 12:08:12;;;;;;;6.85;4.75;;;29.20;90.20;;;;;;5060302;28;20401;-72
2022/08/19 12:10:38;;;;;;;10.23;6.97;;;29.40;90.10;;;;;;5071534;28;20040;-73
2022/08/19 12:13:06;;;;;;;12.13;7.00;;;29.70;90.20;;;;;;5073034;28;20430;-73
2022/08/19 12:15:37;;;;;;;9.55;7.68;;;29.60;90.40;;;;;;5077090;28;20032;-72
2022/08/19 12:18:03;;;;;;;8.32;6.80;;;29.60;90.90;;;;;;5076916;28;20070;-73
2022/08/19 12:20:29;;;;;;;5.57;4.43;;;29.50;91.50;;;;;;5097329;28;20047;-73
2022/08/19 12:22:55;;;;;;;6.28;4.38;;;29.20;85.30;;;;;;5085521;28;20047;-72
2022/08/19 12:25:21;;;;;;;6.93;4.50;;;29.10;88.90;;;;;;5087351;28;20044;-73
2022/08/19 12:27:47;;;;;;;3.70;2.70;;;29.20;87.60;;;;;;5092609;28;20131;-74
2022/08/19 12:30:13;;;;;;;5.82;4.72;;;29.40;86.10;;;;;;5078793;28;20167;-73
2022/08/19 12:32:40;;;;;;;4.53;4.07;;;29.50;83.80;;;;;;5072286;28;20133;-72
2022/08/19 12:35:08;;;;;;;6.95;5.18;;;29.60;83.90;;;;;;5072318;28;20044;-73
2022/08/19 12:37:34;;;;;;;2.95;2.65;;;29.80;84.40;;;;;;5087321;28;20043;-73
2022/08/19 12:40:00;;;;;;;3.53;3.22;;;29.80;79.20;;;;;;5079608;28;20036;-73
2022/08/19 12:42:26;;;;;;;5.88;3.60;;;29.40;76.40;;;;;;5078160;28;20085;-73
2022/08/19 12:44:52;;;;;;;5.32;3.60;;;29.10;77.50;;;;;;5092165;28;20052;-72
2022/08/19 12:47:18;;;;;;;5.95;4.07;;;29.30;79.10;;;;;;5088703;28;20120;-71
2022/08/19 12:49:45;;;;;;;4.57;2.50;;;29.60;81.80;;;;;;5084356;28;20044;-72
2022/08/19 12:52:15;;;;;;;4.15;2.17;;;29.70;77.40;;;;;;5077789;28;20047;-72
2022/08/19 12:54:41;;;;;;;4.07;3.40;;;30.00;73.20;;;;;;5084616;28;20090;-72
2022/08/19 12:57:08;;;;;;;5.97;4.72;;;30.20;75.10;;;;;;5087011;28;20036;-72
2022/08/19 12:59:36;;;;;;;4.72;2.75;;;30.10;76.50;;;;;;5080787;28;20078;-71
2022/08/19 13:02:05;;;;;;;4.28;2.65;;;30.30;72.80;;;;;;5083904;28;20044;-72
2022/08/19 13:04:32;;;;;;;5.07;4.53;;;30.50;74.00;;;;;;5084636;28;20050;-72